sensor_id;sensor_type;location;lat;lon;timestamp;P1;durP1;ratioP1;P2;durP2;ratioP2
76758;SDS011;65701;45.588;5.186;2023-03-31T05:25:31;2.50;;;2.50;;
76758;SDS011;65701;45.588;5.186;2023-03-31T05:34:46;2.00;;;2.00;;
76758;SDS011;65701;45.588;5.186;2023-03-31T05:37:11;5.00;;;4.00;;
76758;SDS011;65701;45.588;5.186;2023-03-31T05:39:38;4.50;;;4.50;;
76758;SDS011;65701;45.588;5.186;2023-03-31T05:42:09;4.00;;;2.00;;
76758;SDS011;65701;45.588;5.186;2023-03-31T05:44:35;3.75;;;3.00;;
76758;SDS011;65701;45.588;5.186;2023-03-31T05:47:01;5.25;;;5.00;;
76758;SDS011;65701;45.588;5.186;2023-03-31T05:49:26;3.00;;;3.00;;
76758;SDS011;65701;45.588;5.186;2023-03-31T05:51:52;4.00;;;4.00;;
76758;SDS011;65701;45.588;5.186;2023-03-31T05:54:18;4.75;;;3.50;;
76758;SDS011;65701;45.588;5.186;2023-03-31T05:56:44;3.75;;;3.75;;
76758;SDS011;65701;45.588;5.186;2023-03-31T05:59:09;2.25;;;2.25;;
76758;SDS011;65701;45.588;5.186;2023-03-31T06:01:35;6.75;;;4.00;;
76758;SDS011;65701;45.588;5.186;2023-03-31T06:04:01;5.25;;;4.00;;
76758;SDS011;65701;45.588;5.186;2023-03-31T06:06:27;4.50;;;4.50;;
76758;SDS011;65701;45.588;5.186;2023-03-31T06:08:52;3.75;;;3.00;;
76758;SDS011;65701;45.588;5.186;2023-03-31T06:11:19;6.00;;;4.25;;
76758;SDS011;65701;45.588;5.186;2023-03-31T06:16:37;5.25;;;4.00;;
76758;SDS011;65701;45.588;5.186;2023-03-31T06:19:02;5.75;;;4.50;;
76758;SDS011;65701;45.588;5.186;2023-03-31T06:21:28;4.50;;;4.50;;
76758;SDS011;65701;45.588;5.186;2023-03-31T06:23:53;4.75;;;4.00;;
76758;SDS011;65701;45.588;5.186;2023-03-31T06:26:27;4.75;;;4.00;;
76758;SDS011;65701;45.588;5.186;2023-03-31T06:28:53;7.00;;;3.75;;
76758;SDS011;65701;45.588;5.186;2023-03-31T06:31:20;4.00;;;4.00;;
76758;SDS011;65701;45.588;5.186;2023-03-31T06:33:47;5.00;;;5.00;;
76758;SDS011;65701;45.588;5.186;2023-03-31T06:36:14;6.25;;;4.25;;
76758;SDS011;65701;45.588;5.186;2023-03-31T06:38:42;7.75;;;6.50;;
76758;SDS011;65701;45.588;5.186;2023-03-31T06:41:08;7.00;;;6.00;;
76758;SDS011;65701;45.588;5.186;2023-03-31T06:43:39;5.00;;;5.00;;
76758;SDS011;65701;45.588;5.186;2023-03-31T06:46:05;5.50;;;5.50;;
76758;SDS011;65701;45.588;5.186;2023-03-31T06:48:31;7.25;;;5.75;;
76758;SDS011;65701;45.588;5.186;2023-03-31T06:50:58;5.25;;;5.25;;
76758;SDS011;65701;45.588;5.186;2023-03-31T06:53:26;9.00;;;8.00;;
76758;SDS011;65701;45.588;5.186;2023-03-31T06:55:51;5.00;;;5.00;;
76758;SDS011;65701;45.588;5.186;2023-03-31T06:58:17;6.75;;;4.75;;
76758;SDS011;65701;45.588;5.186;2023-03-31T07:03:43;5.75;;;5.75;;
76758;SDS011;65701;45.588;5.186;2023-03-31T07:06:08;6.25;;;6.00;;
76758;SDS011;65701;45.588;5.186;2023-03-31T07:08:34;6.00;;;5.50;;
76758;SDS011;65701;45.588;5.186;2023-03-31T07:11:15;6.25;;;5.50;;
76758;SDS011;65701;45.588;5.186;2023-03-31T07:13:43;5.00;;;5.00;;
76758;SDS011;65701;45.588;5.186;2023-03-31T07:16:09;6.50;;;5.75;;
76758;SDS011;65701;45.588;5.186;2023-03-31T07:18:37;9.50;;;8.00;;
76758;SDS011;65701;45.588;5.186;2023-03-31T07:21:06;5.75;;;5.50;;
76758;SDS011;65701;45.588;5.186;2023-03-31T07:23:32;12.50;;;6.00;;
76758;SDS011;65701;45.588;5.186;2023-03-31T07:25:58;7.50;;;6.25;;
76758;SDS011;65701;45.588;5.186;2023-03-31T07:28:26;7.75;;;4.25;;
76758;SDS011;65701;45.588;5.186;2023-03-31T07:30:53;5.75;;;5.75;;
76758;SDS011;65701;45.588;5.186;2023-03-31T07:33:18;6.25;;;6.25;;
76758;SDS011;65701;45.588;5.186;2023-03-31T07:35:44;6.50;;;6.50;;
76758;SDS011;65701;45.588;5.186;2023-03-31T07:38:10;7.50;;;6.00;;
76758;SDS011;65701;45.588;5.186;2023-03-31T07:40:37;7.00;;;5.50;;
76758;SDS011;65701;45.588;5.186;2023-03-31T07:43:03;7.50;;;7.50;;
76758;SDS011;65701;45.588;5.186;2023-03-31T07:45:29;7.75;;;7.25;;
76758;SDS011;65701;45.588;5.186;2023-03-31T07:47:55;3.25;;;3.25;;
76758;SDS011;65701;45.588;5.186;2023-03-31T07:50:20;5.00;;;5.00;;
76758;SDS011;65701;45.588;5.186;2023-03-31T07:52:46;6.00;;;6.00;;
76758;SDS011;65701;45.588;5.186;2023-03-31T07:55:12;9.25;;;8.00;;
76758;SDS011;65701;45.588;5.186;2023-03-31T07:57:38;7.75;;;7.50;;
76758;SDS011;65701;45.588;5.186;2023-03-31T08:00:05;7.25;;;7.25;;
76758;SDS011;65701;45.588;5.186;2023-03-31T08:02:33;10.00;;;8.75;;
76758;SDS011;65701;45.588;5.186;2023-03-31T08:04:59;6.75;;;6.50;;
76758;SDS011;65701;45.588;5.186;2023-03-31T08:07:25;11.50;;;8.00;;
76758;SDS011;65701;45.588;5.186;2023-03-31T08:09:55;9.50;;;9.00;;
76758;SDS011;65701;45.588;5.186;2023-03-31T08:12:21;9.75;;;8.75;;
76758;SDS011;65701;45.588;5.186;2023-03-31T08:14:46;9.50;;;9.50;;
76758;SDS011;65701;45.588;5.186;2023-03-31T08:17:12;8.50;;;7.00;;
76758;SDS011;65701;45.588;5.186;2023-03-31T08:19:38;11.00;;;10.25;;
76758;SDS011;65701;45.588;5.186;2023-03-31T08:22:03;13.25;;;10.00;;
76758;SDS011;65701;45.588;5.186;2023-03-31T08:24:30;12.75;;;11.00;;
76758;SDS011;65701;45.588;5.186;2023-03-31T08:26:56;13.50;;;12.00;;
76758;SDS011;65701;45.588;5.186;2023-03-31T08:29:21;9.50;;;9.25;;
76758;SDS011;65701;45.588;5.186;2023-03-31T08:31:47;11.25;;;10.00;;
76758;SDS011;65701;45.588;5.186;2023-03-31T08:34:12;11.50;;;10.25;;
76758;SDS011;65701;45.588;5.186;2023-03-31T08:36:38;12.50;;;10.25;;
76758;SDS011;65701;45.588;5.186;2023-03-31T08:39:03;8.00;;;8.00;;
76758;SDS011;65701;45.588;5.186;2023-03-31T08:47:33;12.50;;;11.25;;
76758;SDS011;65701;45.588;5.186;2023-03-31T08:50:04;8.00;;;7.25;;
76758;SDS011;65701;45.588;5.186;2023-03-31T08:52:38;10.75;;;9.50;;
76758;SDS011;65701;45.588;5.186;2023-03-31T08:55:17;11.75;;;9.00;;
76758;SDS011;65701;45.588;5.186;2023-03-31T08:58:00;10.00;;;8.50;;
76758;SDS011;65701;45.588;5.186;2023-03-31T09:00:43;9.75;;;8.75;;
76758;SDS011;65701;45.588;5.186;2023-03-31T09:03:33;11.00;;;10.25;;
76758;SDS011;65701;45.588;5.186;2023-03-31T09:06:17;11.25;;;10.75;;
76758;SDS011;65701;45.588;5.186;2023-03-31T09:08:57;9.75;;;9.75;;
76758;SDS011;65701;45.588;5.186;2023-03-31T09:11:34;8.00;;;7.75;;
76758;SDS011;65701;45.588;5.186;2023-03-31T09:17:28;11.75;;;11.00;;
76758;SDS011;65701;45.588;5.186;2023-03-31T09:19:57;8.75;;;8.75;;
76758;SDS011;65701;45.588;5.186;2023-03-31T09:22:32;10.75;;;10.75;;
76758;SDS011;65701;45.588;5.186;2023-03-31T09:27:55;10.50;;;8.25;;
76758;SDS011;65701;45.588;5.186;2023-03-31T09:30:27;8.50;;;7.50;;
76758;SDS011;65701;45.588;5.186;2023-03-31T09:35:48;9.50;;;9.50;;
76758;SDS011;65701;45.588;5.186;2023-03-31T09:38:14;10.75;;;10.00;;
76758;SDS011;65701;45.588;5.186;2023-03-31T09:40:40;10.75;;;10.50;;
76758;SDS011;65701;45.588;5.186;2023-03-31T09:43:25;9.00;;;9.00;;
76758;SDS011;65701;45.588;5.186;2023-03-31T09:45:52;5.00;;;5.00;;
76758;SDS011;65701;45.588;5.186;2023-03-31T09:48:22;11.00;;;9.25;;
76758;SDS011;65701;45.588;5.186;2023-03-31T09:50:52;9.00;;;9.00;;
76758;SDS011;65701;45.588;5.186;2023-03-31T09:55:59;8.00;;;8.00;;
76758;SDS011;65701;45.588;5.186;2023-03-31T09:58:26;11.25;;;8.25;;
76758;SDS011;65701;45.588;5.186;2023-03-31T10:01:07;9.50;;;8.00;;
76758;SDS011;65701;45.588;5.186;2023-03-31T10:03:49;10.50;;;8.75;;
76758;SDS011;65701;45.588;5.186;2023-03-31T10:06:17;7.50;;;7.50;;
76758;SDS011;65701;45.588;5.186;2023-03-31T10:08:57;8.00;;;8.00;;
76758;SDS011;65701;45.588;5.186;2023-03-31T10:11:25;6.75;;;6.75;;
76758;SDS011;65701;45.588;5.186;2023-03-31T10:16:43;8.50;;;7.50;;
76758;SDS011;65701;45.588;5.186;2023-03-31T10:21:59;11.75;;;10.50;;
76758;SDS011;65701;45.588;5.186;2023-03-31T10:24:37;9.75;;;9.75;;
76758;SDS011;65701;45.588;5.186;2023-03-31T10:27:05;10.00;;;6.00;;
76758;SDS011;65701;45.588;5.186;2023-03-31T10:29:53;7.75;;;5.75;;
76758;SDS011;65701;45.588;5.186;2023-03-31T10:33:03;9.25;;;9.00;;
76758;SDS011;65701;45.588;5.186;2023-03-31T10:37:50;10.75;;;9.25;;
76758;SDS011;65701;45.588;5.186;2023-03-31T10:40:21;8.75;;;8.00;;
76758;SDS011;65701;45.588;5.186;2023-03-31T10:42:57;10.50;;;8.75;;
76758;SDS011;65701;45.588;5.186;2023-03-31T10:45:52;6.00;;;5.75;;
76758;SDS011;65701;45.588;5.186;2023-03-31T10:48:30;8.75;;;8.25;;
76758;SDS011;65701;45.588;5.186;2023-03-31T10:53:42;14.25;;;12.00;;
76758;SDS011;65701;45.588;5.186;2023-03-31T10:56:12;10.25;;;8.00;;
76758;SDS011;65701;45.588;5.186;2023-03-31T11:01:25;10.00;;;9.50;;
76758;SDS011;65701;45.588;5.186;2023-03-31T11:04:09;7.75;;;7.75;;
76758;SDS011;65701;45.588;5.186;2023-03-31T11:06:55;9.00;;;9.00;;
76758;SDS011;65701;45.588;5.186;2023-03-31T11:11:57;9.00;;;9.00;;
76758;SDS011;65701;45.588;5.186;2023-03-31T11:17:25;7.75;;;7.75;;
76758;SDS011;65701;45.588;5.186;2023-03-31T11:20:29;5.75;;;4.25;;
76758;SDS011;65701;45.588;5.186;2023-03-31T11:23:01;7.00;;;6.75;;
76758;SDS011;65701;45.588;5.186;2023-03-31T11:28:21;8.25;;;8.25;;
76758;SDS011;65701;45.588;5.186;2023-03-31T11:33:47;5.75;;;5.75;;
76758;SDS011;65701;45.588;5.186;2023-03-31T11:39:23;9.25;;;8.00;;
76758;SDS011;65701;45.588;5.186;2023-03-31T11:42:14;14.25;;;11.50;;
76758;SDS011;65701;45.588;5.186;2023-03-31T11:44:47;8.25;;;7.75;;
76758;SDS011;65701;45.588;5.186;2023-03-31T11:47:51;9.00;;;7.25;;
76758;SDS011;65701;45.588;5.186;2023-03-31T11:50:29;7.50;;;7.25;;
76758;SDS011;65701;45.588;5.186;2023-03-31T11:53:45;7.25;;;7.25;;
76758;SDS011;65701;45.588;5.186;2023-03-31T11:55:55;7.00;;;6.00;;
76758;SDS011;65701;45.588;5.186;2023-03-31T12:01:27;7.75;;;7.75;;
76758;SDS011;65701;45.588;5.186;2023-03-31T12:04:22;11.00;;;7.50;;
76758;SDS011;65701;45.588;5.186;2023-03-31T12:07:15;11.50;;;10.50;;
76758;SDS011;65701;45.588;5.186;2023-03-31T12:10:02;7.00;;;7.00;;
76758;SDS011;65701;45.588;5.186;2023-03-31T12:12:38;12.50;;;8.50;;
76758;SDS011;65701;45.588;5.186;2023-03-31T12:15:28;9.50;;;8.00;;
76758;SDS011;65701;45.588;5.186;2023-03-31T12:17:58;9.50;;;7.25;;
76758;SDS011;65701;45.588;5.186;2023-03-31T12:20:33;8.50;;;7.00;;
76758;SDS011;65701;45.588;5.186;2023-03-31T12:23:04;10.25;;;9.25;;
76758;SDS011;65701;45.588;5.186;2023-03-31T12:25:39;7.00;;;5.50;;
76758;SDS011;65701;45.588;5.186;2023-03-31T12:28:12;7.75;;;7.25;;
76758;SDS011;65701;45.588;5.186;2023-03-31T12:30:38;10.25;;;8.25;;
76758;SDS011;65701;45.588;5.186;2023-03-31T12:33:15;6.75;;;5.75;;
76758;SDS011;65701;45.588;5.186;2023-03-31T12:46:34;5.50;;;4.00;;
76758;SDS011;65701;45.588;5.186;2023-03-31T12:49:28;6.50;;;6.00;;
76758;SDS011;65701;45.588;5.186;2023-03-31T12:52:51;7.50;;;7.50;;
76758;SDS011;65701;45.588;5.186;2023-03-31T12:57:47;4.50;;;4.50;;
76758;SDS011;65701;45.588;5.186;2023-03-31T13:00:25;2.75;;;1.00;;
76758;SDS011;65701;45.588;5.186;2023-03-31T13:07:00;1.50;;;1.50;;
76758;SDS011;65701;45.588;5.186;2023-03-31T13:09:01;0.50;;;0.50;;
76758;SDS011;65701;45.588;5.186;2023-03-31T13:16:46;0.00;;;0.00;;
76758;SDS011;65701;45.588;5.186;2023-03-31T13:19:27;0.00;;;0.00;;
76758;SDS011;65701;45.588;5.186;2023-03-31T13:21:56;0.50;;;0.50;;
76758;SDS011;65701;45.588;5.186;2023-03-31T13:24:24;1.75;;;0.00;;
76758;SDS011;65701;45.588;5.186;2023-03-31T13:26:51;2.25;;;0.25;;
76758;SDS011;65701;45.588;5.186;2023-03-31T13:34:43;0.00;;;0.00;;
76758;SDS011;65701;45.588;5.186;2023-03-31T13:40:12;0.50;;;0.50;;
76758;SDS011;65701;45.588;5.186;2023-03-31T13:45:46;1.25;;;0.00;;
76758;SDS011;65701;45.588;5.186;2023-03-31T13:54:08;1.00;;;0.75;;
76758;SDS011;65701;45.588;5.186;2023-03-31T14:08:49;1.00;;;0.00;;
76758;SDS011;65701;45.588;5.186;2023-03-31T14:11:23;1.75;;;0.75;;
76758;SDS011;65701;45.588;5.186;2023-03-31T14:14:13;0.00;;;0.00;;
76758;SDS011;65701;45.588;5.186;2023-03-31T14:19:28;0.00;;;0.00;;
76758;SDS011;65701;45.588;5.186;2023-03-31T14:22:15;0.00;;;0.00;;
76758;SDS011;65701;45.588;5.186;2023-03-31T14:33:09;0.00;;;0.00;;
76758;SDS011;65701;45.588;5.186;2023-03-31T14:35:56;0.00;;;0.00;;
76758;SDS011;65701;45.588;5.186;2023-03-31T14:38:26;0.25;;;0.00;;
76758;SDS011;65701;45.588;5.186;2023-03-31T14:40:53;1.00;;;1.00;;
76758;SDS011;65701;45.588;5.186;2023-03-31T14:43:26;0.00;;;0.00;;
76758;SDS011;65701;45.588;5.186;2023-03-31T14:46:03;0.00;;;0.00;;
76758;SDS011;65701;45.588;5.186;2023-03-31T14:48:32;0.00;;;0.00;;
76758;SDS011;65701;45.588;5.186;2023-03-31T14:51:13;0.00;;;0.00;;
76758;SDS011;65701;45.588;5.186;2023-03-31T14:53:41;0.50;;;0.00;;
76758;SDS011;65701;45.588;5.186;2023-03-31T14:56:15;0.00;;;0.00;;
76758;SDS011;65701;45.588;5.186;2023-03-31T14:58:47;0.00;;;0.00;;
76758;SDS011;65701;45.588;5.186;2023-03-31T15:01:21;0.00;;;0.00;;
76758;SDS011;65701;45.588;5.186;2023-03-31T15:03:52;1.75;;;0.00;;
76758;SDS011;65701;45.588;5.186;2023-03-31T15:06:19;0.00;;;0.00;;
76758;SDS011;65701;45.588;5.186;2023-03-31T15:08:47;1.00;;;1.00;;
76758;SDS011;65701;45.588;5.186;2023-03-31T15:11:15;1.00;;;0.00;;
76758;SDS011;65701;45.588;5.186;2023-03-31T15:13:45;0.00;;;0.00;;
76758;SDS011;65701;45.588;5.186;2023-03-31T15:16:19;0.00;;;0.00;;
76758;SDS011;65701;45.588;5.186;2023-03-31T15:19:28;0.00;;;0.00;;
76758;SDS011;65701;45.588;5.186;2023-03-31T15:25:14;0.00;;;0.00;;
76758;SDS011;65701;45.588;5.186;2023-03-31T15:27:51;0.00;;;0.00;;
76758;SDS011;65701;45.588;5.186;2023-03-31T15:30:24;0.75;;;0.00;;
76758;SDS011;65701;45.588;5.186;2023-03-31T15:32:52;0.00;;;0.00;;
76758;SDS011;65701;45.588;5.186;2023-03-31T15:37:53;1.00;;;1.00;;
76758;SDS011;65701;45.588;5.186;2023-03-31T15:40:30;0.00;;;0.00;;
76758;SDS011;65701;45.588;5.186;2023-03-31T15:45:36;1.75;;;0.00;;
76758;SDS011;65701;45.588;5.186;2023-03-31T15:48:15;0.00;;;0.00;;
76758;SDS011;65701;45.588;5.186;2023-03-31T15:50:44;0.25;;;0.00;;
76758;SDS011;65701;45.588;5.186;2023-03-31T15:59:26;0.00;;;0.00;;
76758;SDS011;65701;45.588;5.186;2023-03-31T16:01:54;0.75;;;0.50;;
76758;SDS011;65701;45.588;5.186;2023-03-31T16:04:20;0.50;;;0.00;;
76758;SDS011;65701;45.588;5.186;2023-03-31T16:11:53;0.00;;;0.00;;
76758;SDS011;65701;45.588;5.186;2023-03-31T16:14:30;0.00;;;0.00;;
76758;SDS011;65701;45.588;5.186;2023-03-31T16:17:06;0.75;;;0.00;;
76758;SDS011;65701;45.588;5.186;2023-03-31T16:19:40;0.00;;;0.00;;
76758;SDS011;65701;45.588;5.186;2023-03-31T16:22:12;0.00;;;0.00;;
76758;SDS011;65701;45.588;5.186;2023-03-31T16:28:05;0.00;;;0.00;;
76758;SDS011;65701;45.588;5.186;2023-03-31T16:30:33;0.00;;;0.00;;
76758;SDS011;65701;45.588;5.186;2023-03-31T16:33:04;0.25;;;0.00;;
76758;SDS011;65701;45.588;5.186;2023-03-31T16:38:04;0.00;;;0.00;;
76758;SDS011;65701;45.588;5.186;2023-03-31T16:40:38;1.00;;;0.00;;
76758;SDS011;65701;45.588;5.186;2023-03-31T16:45:59;0.00;;;0.00;;
76758;SDS011;65701;45.588;5.186;2023-03-31T16:48:28;0.00;;;0.00;;
76758;SDS011;65701;45.588;5.186;2023-03-31T16:50:56;0.75;;;0.00;;
76758;SDS011;65701;45.588;5.186;2023-03-31T16:53:23;0.00;;;0.00;;
76758;SDS011;65701;45.588;5.186;2023-03-31T16:55:52;0.00;;;0.00;;
76758;SDS011;65701;45.588;5.186;2023-03-31T16:58:19;0.00;;;0.00;;
76758;SDS011;65701;45.588;5.186;2023-03-31T17:00:49;0.75;;;0.00;;
76758;SDS011;65701;45.588;5.186;2023-03-31T17:03:15;0.00;;;0.00;;
76758;SDS011;65701;45.588;5.186;2023-03-31T17:05:42;0.00;;;0.00;;
76758;SDS011;65701;45.588;5.186;2023-03-31T17:08:09;1.00;;;0.00;;
76758;SDS011;65701;45.588;5.186;2023-03-31T17:10:36;0.00;;;0.00;;
76758;SDS011;65701;45.588;5.186;2023-03-31T17:13:03;0.00;;;0.00;;
76758;SDS011;65701;45.588;5.186;2023-03-31T17:15:29;64.00;;;49.75;;
76758;SDS011;65701;45.588;5.186;2023-03-31T17:17:56;615.40;;;524.80;;
76758;SDS011;65701;45.588;5.186;2023-03-31T17:20:23;353.75;;;316.75;;
76758;SDS011;65701;45.588;5.186;2023-03-31T17:22:50;184.25;;;176.00;;
76758;SDS011;65701;45.588;5.186;2023-03-31T17:25:16;226.75;;;214.75;;
76758;SDS011;65701;45.588;5.186;2023-03-31T17:27:42;57.75;;;46.75;;
76758;SDS011;65701;45.588;5.186;2023-03-31T17:30:09;78.75;;;71.50;;
76758;SDS011;65701;45.588;5.186;2023-03-31T17:32:35;35.75;;;33.50;;
76758;SDS011;65701;45.588;5.186;2023-03-31T17:35:01;85.25;;;82.00;;
76758;SDS011;65701;45.588;5.186;2023-03-31T17:37:27;59.75;;;49.25;;
76758;SDS011;65701;45.588;5.186;2023-03-31T17:39:55;88.50;;;82.50;;
76758;SDS011;65701;45.588;5.186;2023-03-31T17:42:36;44.50;;;38.75;;
76758;SDS011;65701;45.588;5.186;2023-03-31T17:45:03;106.50;;;103.00;;
76758;SDS011;65701;45.588;5.186;2023-03-31T17:47:29;52.50;;;44.25;;
76758;SDS011;65701;45.588;5.186;2023-03-31T17:49:56;51.50;;;44.50;;
76758;SDS011;65701;45.588;5.186;2023-03-31T17:52:22;59.00;;;48.75;;
76758;SDS011;65701;45.588;5.186;2023-03-31T17:54:48;62.75;;;50.50;;
76758;SDS011;65701;45.588;5.186;2023-03-31T17:57:15;61.00;;;49.25;;
76758;SDS011;65701;45.588;5.186;2023-03-31T17:59:41;64.00;;;52.75;;
76758;SDS011;65701;45.588;5.186;2023-03-31T18:02:10;12.75;;;11.00;;
76758;SDS011;65701;45.588;5.186;2023-03-31T18:04:37;6.50;;;5.00;;
76758;SDS011;65701;45.588;5.186;2023-03-31T18:07:03;30.00;;;28.75;;
76758;SDS011;65701;45.588;5.186;2023-03-31T18:09:28;36.00;;;34.00;;
76758;SDS011;65701;45.588;5.186;2023-03-31T18:11:54;18.75;;;18.75;;
76758;SDS011;65701;45.588;5.186;2023-03-31T18:14:20;28.50;;;28.00;;
76758;SDS011;65701;45.588;5.186;2023-03-31T18:16:45;24.25;;;22.75;;
76758;SDS011;65701;45.588;5.186;2023-03-31T18:19:11;9.00;;;8.00;;
76758;SDS011;65701;45.588;5.186;2023-03-31T18:21:36;5.00;;;5.00;;
76758;SDS011;65701;45.588;5.186;2023-03-31T18:24:02;0.00;;;0.00;;
76758;SDS011;65701;45.588;5.186;2023-03-31T18:26:27;0.00;;;0.00;;
76758;SDS011;65701;45.588;5.186;2023-03-31T18:28:53;3.50;;;3.50;;
76758;SDS011;65701;45.588;5.186;2023-03-31T18:31:18;3.00;;;1.75;;
76758;SDS011;65701;45.588;5.186;2023-03-31T18:33:46;1.00;;;1.00;;
76758;SDS011;65701;45.588;5.186;2023-03-31T18:36:16;1.00;;;1.00;;
76758;SDS011;65701;45.588;5.186;2023-03-31T18:38:43;1.75;;;1.50;;
76758;SDS011;65701;45.588;5.186;2023-03-31T18:41:10;2.50;;;1.00;;
76758;SDS011;65701;45.588;5.186;2023-03-31T18:43:36;1.50;;;1.50;;
76758;SDS011;65701;45.588;5.186;2023-03-31T18:46:02;0.00;;;0.00;;
76758;SDS011;65701;45.588;5.186;2023-03-31T18:48:30;2.00;;;0.50;;
76758;SDS011;65701;45.588;5.186;2023-03-31T18:51:02;0.00;;;0.00;;
76758;SDS011;65701;45.588;5.186;2023-03-31T18:53:28;2.50;;;1.25;;
76758;SDS011;65701;45.588;5.186;2023-03-31T18:55:55;1.25;;;0.25;;
76758;SDS011;65701;45.588;5.186;2023-03-31T18:58:26;1.00;;;1.00;;
76758;SDS011;65701;45.588;5.186;2023-03-31T19:00:53;2.00;;;2.00;;
76758;SDS011;65701;45.588;5.186;2023-03-31T19:03:19;1.00;;;1.00;;
76758;SDS011;65701;45.588;5.186;2023-03-31T19:05:45;1.25;;;1.00;;
76758;SDS011;65701;45.588;5.186;2023-03-31T19:08:11;2.00;;;2.00;;
76758;SDS011;65701;45.588;5.186;2023-03-31T19:10:36;4.25;;;2.50;;
76758;SDS011;65701;45.588;5.186;2023-03-31T19:13:03;3.50;;;3.00;;
76758;SDS011;65701;45.588;5.186;2023-03-31T19:15:29;1.00;;;1.00;;
76758;SDS011;65701;45.588;5.186;2023-03-31T19:17:54;1.50;;;1.50;;
76758;SDS011;65701;45.588;5.186;2023-03-31T19:20:20;3.00;;;3.00;;
76758;SDS011;65701;45.588;5.186;2023-03-31T19:22:46;7.00;;;6.00;;
76758;SDS011;65701;45.588;5.186;2023-03-31T19:25:15;1.00;;;1.00;;
76758;SDS011;65701;45.588;5.186;2023-03-31T19:27:43;2.75;;;1.00;;
76758;SDS011;65701;45.588;5.186;2023-03-31T19:30:17;1.00;;;0.00;;
76758;SDS011;65701;45.588;5.186;2023-03-31T19:32:45;0.00;;;0.00;;
76758;SDS011;65701;45.588;5.186;2023-03-31T19:35:13;0.00;;;0.00;;
76758;SDS011;65701;45.588;5.186;2023-03-31T19:37:39;12.50;;;9.00;;
76758;SDS011;65701;45.588;5.186;2023-03-31T19:40:05;32.25;;;31.50;;
76758;SDS011;65701;45.588;5.186;2023-03-31T19:42:31;65.25;;;53.00;;
76758;SDS011;65701;45.588;5.186;2023-03-31T19:44:57;7.75;;;7.75;;
76758;SDS011;65701;45.588;5.186;2023-03-31T19:47:23;7.25;;;6.75;;
76758;SDS011;65701;45.588;5.186;2023-03-31T19:49:48;14.50;;;13.75;;
76758;SDS011;65701;45.588;5.186;2023-03-31T19:52:14;6.00;;;3.25;;
76758;SDS011;65701;45.588;5.186;2023-03-31T19:54:39;1.75;;;1.75;;
76758;SDS011;65701;45.588;5.186;2023-03-31T19:57:05;8.00;;;8.00;;
76758;SDS011;65701;45.588;5.186;2023-03-31T19:59:32;3.00;;;3.00;;
76758;SDS011;65701;45.588;5.186;2023-03-31T20:01:58;2.00;;;2.00;;
76758;SDS011;65701;45.588;5.186;2023-03-31T20:04:26;2.00;;;2.00;;
76758;SDS011;65701;45.588;5.186;2023-03-31T20:06:52;0.75;;;0.75;;
76758;SDS011;65701;45.588;5.186;2023-03-31T20:09:18;2.00;;;0.75;;
76758;SDS011;65701;45.588;5.186;2023-03-31T20:11:44;1.25;;;1.25;;
76758;SDS011;65701;45.588;5.186;2023-03-31T20:14:10;3.75;;;3.75;;
76758;SDS011;65701;45.588;5.186;2023-03-31T20:16:36;9.00;;;4.50;;
76758;SDS011;65701;45.588;5.186;2023-03-31T20:19:03;10.75;;;8.75;;
76758;SDS011;65701;45.588;5.186;2023-03-31T20:21:30;6.75;;;6.50;;
76758;SDS011;65701;45.588;5.186;2023-03-31T20:23:58;1.00;;;1.00;;
76758;SDS011;65701;45.588;5.186;2023-03-31T20:26:24;8.00;;;7.25;;
76758;SDS011;65701;45.588;5.186;2023-03-31T20:28:53;10.75;;;9.50;;
76758;SDS011;65701;45.588;5.186;2023-03-31T20:31:26;11.25;;;9.00;;
76758;SDS011;65701;45.588;5.186;2023-03-31T20:33:54;7.00;;;7.00;;
76758;SDS011;65701;45.588;5.186;2023-03-31T20:36:21;2.00;;;2.00;;
76758;SDS011;65701;45.588;5.186;2023-03-31T20:38:48;2.00;;;1.00;;
76758;SDS011;65701;45.588;5.186;2023-03-31T20:41:15;9.50;;;9.50;;
76758;SDS011;65701;45.588;5.186;2023-03-31T20:43:42;7.75;;;7.25;;
76758;SDS011;65701;45.588;5.186;2023-03-31T20:46:09;4.00;;;2.75;;
76758;SDS011;65701;45.588;5.186;2023-03-31T20:48:45;2.25;;;2.00;;
76758;SDS011;65701;45.588;5.186;2023-03-31T20:51:13;1.00;;;1.00;;
76758;SDS011;65701;45.588;5.186;2023-03-31T20:53:42;5.00;;;3.25;;
76758;SDS011;65701;45.588;5.186;2023-03-31T20:56:14;8.50;;;8.25;;
76758;SDS011;65701;45.588;5.186;2023-03-31T20:58:42;3.00;;;3.00;;
76758;SDS011;65701;45.588;5.186;2023-03-31T21:01:09;1.00;;;1.00;;
76758;SDS011;65701;45.588;5.186;2023-03-31T21:03:35;3.25;;;1.00;;
76758;SDS011;65701;45.588;5.186;2023-03-31T21:06:01;1.75;;;1.75;;
76758;SDS011;65701;45.588;5.186;2023-03-31T21:08:28;0.00;;;0.00;;
76758;SDS011;65701;45.588;5.186;2023-03-31T21:10:54;2.75;;;1.00;;
76758;SDS011;65701;45.588;5.186;2023-03-31T21:13:23;0.00;;;0.00;;
76758;SDS011;65701;45.588;5.186;2023-03-31T21:15:53;3.00;;;1.00;;
76758;SDS011;65701;45.588;5.186;2023-03-31T21:18:20;0.00;;;0.00;;
76758;SDS011;65701;45.588;5.186;2023-03-31T21:20:47;1.00;;;1.00;;
76758;SDS011;65701;45.588;5.186;2023-03-31T21:23:17;0.00;;;0.00;;
76758;SDS011;65701;45.588;5.186;2023-03-31T21:25:50;0.75;;;0.75;;
76758;SDS011;65701;45.588;5.186;2023-03-31T21:28:17;1.00;;;1.00;;
76758;SDS011;65701;45.588;5.186;2023-03-31T21:30:52;1.00;;;1.00;;
76758;SDS011;65701;45.588;5.186;2023-03-31T21:33:20;0.75;;;0.75;;
76758;SDS011;65701;45.588;5.186;2023-03-31T21:35:47;0.00;;;0.00;;
76758;SDS011;65701;45.588;5.186;2023-03-31T21:38:13;0.00;;;0.00;;
76758;SDS011;65701;45.588;5.186;2023-03-31T21:40:40;1.00;;;1.00;;
76758;SDS011;65701;45.588;5.186;2023-03-31T21:43:07;1.00;;;1.00;;
76758;SDS011;65701;45.588;5.186;2023-03-31T21:45:34;2.25;;;1.00;;
76758;SDS011;65701;45.588;5.186;2023-03-31T21:48:04;1.75;;;1.75;;
76758;SDS011;65701;45.588;5.186;2023-03-31T21:50:31;0.00;;;0.00;;
76758;SDS011;65701;45.588;5.186;2023-03-31T21:52:59;0.00;;;0.00;;
76758;SDS011;65701;45.588;5.186;2023-03-31T21:55:25;0.50;;;0.50;;
76758;SDS011;65701;45.588;5.186;2023-03-31T21:57:51;1.00;;;1.00;;
76758;SDS011;65701;45.588;5.186;2023-03-31T22:00:17;0.75;;;0.75;;
76758;SDS011;65701;45.588;5.186;2023-03-31T22:02:43;2.00;;;2.00;;
76758;SDS011;65701;45.588;5.186;2023-03-31T22:05:09;2.00;;;2.00;;
76758;SDS011;65701;45.588;5.186;2023-03-31T22:07:34;3.00;;;2.25;;
76758;SDS011;65701;45.588;5.186;2023-03-31T22:10:01;1.00;;;1.00;;
76758;SDS011;65701;45.588;5.186;2023-03-31T22:12:28;3.50;;;2.00;;
76758;SDS011;65701;45.588;5.186;2023-03-31T22:14:54;1.00;;;1.00;;
76758;SDS011;65701;45.588;5.186;2023-03-31T22:17:21;2.00;;;2.00;;
76758;SDS011;65701;45.588;5.186;2023-03-31T22:19:47;2.00;;;2.00;;
76758;SDS011;65701;45.588;5.186;2023-03-31T22:22:12;2.00;;;1.00;;
76758;SDS011;65701;45.588;5.186;2023-03-31T22:24:38;1.25;;;1.00;;
76758;SDS011;65701;45.588;5.186;2023-03-31T22:27:03;1.75;;;0.00;;
76758;SDS011;65701;45.588;5.186;2023-03-31T22:29:30;0.00;;;0.00;;
76758;SDS011;65701;45.588;5.186;2023-03-31T22:31:56;1.00;;;1.00;;
76758;SDS011;65701;45.588;5.186;2023-03-31T22:34:22;2.00;;;2.00;;
76758;SDS011;65701;45.588;5.186;2023-03-31T22:36:47;0.75;;;0.25;;
76758;SDS011;65701;45.588;5.186;2023-03-31T22:39:13;1.75;;;1.00;;
76758;SDS011;65701;45.588;5.186;2023-03-31T22:41:40;1.00;;;1.00;;
76758;SDS011;65701;45.588;5.186;2023-03-31T22:44:07;0.75;;;0.00;;
76758;SDS011;65701;45.588;5.186;2023-03-31T22:46:33;2.00;;;0.50;;
76758;SDS011;65701;45.588;5.186;2023-03-31T22:48:59;1.50;;;0.00;;
76758;SDS011;65701;45.588;5.186;2023-03-31T22:51:25;0.00;;;0.00;;
76758;SDS011;65701;45.588;5.186;2023-03-31T22:53:51;0.00;;;0.00;;
76758;SDS011;65701;45.588;5.186;2023-03-31T22:56:18;2.00;;;0.00;;